Time;durP1;ratioP1;P1;durP2;ratioP2;P2;SDS_P1;SDS_P2;PMS_P1;PMS_P2;Temp;Humidity;BMP_temperature;BMP_pressure;BME280_temperature;BME280_humidity;BME280_pressure;Samples;Min_cycle;Max_cycle;Signal;HPM_P1;HPM_P2
2023/03/01 00:01:30;;;;;;;35.27;18.37;;;-1.50;99.90;;;;;;9477579;23;20171;-89
2023/03/01 00:05:16;;;;;;;35.77;18.20;;;-1.50;99.90;;;;;;9509095;23;20179;-91
2023/03/01 00:09:02;;;;;;;32.53;17.60;;;-1.50;99.90;;;;;;9502530;23;20184;-89
2023/03/01 00:12:47;;;;;;;38.70;19.20;;;-1.60;99.90;;;;;;9501277;23;20163;-89
2023/03/01 00:16:41;;;;;;;34.43;17.53;;;-1.60;99.90;;;;;;9501649;23;20634;-89
2023/03/01 00:20:27;;;;;;;28.67;15.67;;;-1.60;99.90;;;;;;9504137;23;20254;-88
2023/03/01 00:24:13;;;;;;;30.93;16.97;;;-1.60;99.90;;;;;;9505306;23;20152;-89
2023/03/01 00:27:58;;;;;;;29.93;14.77;;;-1.70;99.90;;;;;;9478848;23;20188;-89
2023/03/01 00:31:44;;;;;;;27.93;14.97;;;-1.70;99.90;;;;;;9505472;23;20156;-89
2023/03/01 00:35:31;;;;;;;27.33;14.73;;;-1.70;99.90;;;;;;9503822;23;20187;-89
2023/03/01 00:39:17;;;;;;;24.87;13.90;;;-1.70;99.90;;;;;;9504657;23;20254;-89
2023/03/01 00:43:03;;;;;;;25.50;13.90;;;-1.80;99.90;;;;;;9503098;23;20221;-89
2023/03/01 00:46:49;;;;;;;25.30;13.53;;;-1.70;99.90;;;;;;9503409;23;20247;-90
2023/03/01 00:50:35;;;;;;;25.33;13.30;;;-1.80;99.90;;;;;;9503153;23;20191;-89
2023/03/01 00:54:20;;;;;;;24.37;11.63;;;-1.80;99.90;;;;;;9503689;23;20233;-89
2023/03/01 00:58:06;;;;;;;25.17;13.07;;;-1.80;99.90;;;;;;9502560;23;20189;-89
2023/03/01 01:01:52;;;;;;;24.80;13.17;;;-1.90;99.90;;;;;;9504852;23;20177;-90
2023/03/01 01:05:37;;;;;;;28.73;13.37;;;-1.90;99.90;;;;;;9503309;23;20231;-89
2023/03/01 01:09:23;;;;;;;25.47;12.77;;;-1.90;99.90;;;;;;9476382;23;20624;-90
2023/03/01 01:13:08;;;;;;;24.83;13.13;;;-1.90;99.90;;;;;;9502918;23;20170;-90
2023/03/01 01:16:54;;;;;;;23.27;12.97;;;-1.90;99.90;;;;;;9503036;23;20186;-89
2023/03/01 01:20:40;;;;;;;25.10;13.43;;;-2.00;99.90;;;;;;9502905;23;20190;-89
2023/03/01 01:24:26;;;;;;;24.07;13.70;;;-2.00;99.90;;;;;;9502822;23;20174;-89
2023/03/01 01:28:12;;;;;;;28.03;13.80;;;-2.00;99.90;;;;;;9503760;23;20180;-89
2023/03/01 01:31:58;;;;;;;26.97;14.90;;;-2.00;99.90;;;;;;9503720;23;20159;-90
2023/03/01 01:35:45;;;;;;;25.20;13.73;;;-2.00;99.90;;;;;;9504725;23;20238;-89
2023/03/01 01:39:30;;;;;;;30.17;15.17;;;-2.10;99.90;;;;;;9504269;23;20628;-90
2023/03/01 01:43:32;;;;;;;32.47;16.23;;;-2.10;99.90;;;;;;9502918;23;20571;-89
2023/03/01 01:47:21;;;;;;;26.93;15.17;;;-2.10;99.90;;;;;;9504791;23;20152;-89
2023/03/01 01:51:19;;;;;;;28.03;14.60;;;-2.20;99.90;;;;;;9481318;23;20630;-90
2023/03/01 01:55:21;;;;;;;28.63;15.40;;;-2.20;99.90;;;;;;9502768;23;20187;-90
2023/03/01 01:59:07;;;;;;;26.80;14.20;;;-2.20;99.90;;;;;;9502324;23;20684;-90
2023/03/01 02:03:00;;;;;;;28.77;14.80;;;-2.20;99.90;;;;;;9502485;23;20499;-91
2023/03/01 02:06:54;;;;;;;29.27;14.77;;;-2.20;99.90;;;;;;9505327;23;20147;-90
2023/03/01 02:10:40;;;;;;;32.87;14.47;;;-2.30;99.90;;;;;;9510248;23;20201;-89
2023/03/01 02:14:26;;;;;;;28.17;14.33;;;-2.30;99.90;;;;;;9504512;23;20183;-88
2023/03/01 02:18:16;;;;;;;26.80;14.27;;;-2.30;99.90;;;;;;9501758;23;20176;-89
2023/03/01 02:22:18;;;;;;;26.53;14.73;;;-2.30;99.90;;;;;;9502086;23;20538;-89
2023/03/01 02:26:25;;;;;;;27.93;15.00;;;-2.40;99.90;;;;;;9501643;23;20286;-89
2023/03/01 02:30:12;;;;;;;26.37;14.27;;;-2.40;99.90;;;;;;9502108;23;20667;-89
2023/03/01 02:33:58;;;;;;;26.17;14.53;;;-2.40;99.90;;;;;;9501855;23;20167;-90
2023/03/01 02:37:44;;;;;;;28.77;14.80;;;-2.40;99.90;;;;;;9501388;23;20785;-90
2023/03/01 02:41:35;;;;;;;28.97;14.60;;;-2.50;99.90;;;;;;9501271;23;20503;-89
2023/03/01 02:45:21;;;;;;;28.10;14.60;;;-2.40;99.90;;;;;;9503357;23;20175;-89
2023/03/01 02:49:19;;;;;;;29.07;14.77;;;-2.50;99.90;;;;;;9503299;23;20172;-89
2023/03/01 02:53:12;;;;;;;29.10;13.90;;;-2.50;99.90;;;;;;9502085;23;20266;-89
2023/03/01 02:56:58;;;;;;;30.17;14.77;;;-2.60;99.90;;;;;;9502756;23;20249;-89
2023/03/01 03:00:46;;;;;;;25.67;14.30;;;-2.60;99.90;;;;;;9501114;23;20207;-89
2023/03/01 03:04:32;;;;;;;29.30;13.57;;;-2.60;99.90;;;;;;9477599;23;20166;-88
2023/03/01 03:08:23;;;;;;;27.13;14.50;;;-2.70;99.90;;;;;;9502671;23;20179;-89
2023/03/01 03:12:09;;;;;;;28.83;14.03;;;-2.70;99.90;;;;;;9501600;23;20244;-89
2023/03/01 03:15:56;;;;;;;29.17;14.47;;;-2.70;99.90;;;;;;9477066;23;20196;-89
2023/03/01 03:19:45;;;;;;;29.63;14.37;;;-2.70;99.90;;;;;;9501091;23;20680;-89
2023/03/01 03:23:31;;;;;;;26.67;14.43;;;-2.70;99.90;;;;;;9501445;23;20194;-89
2023/03/01 03:27:16;;;;;;;28.77;14.60;;;-2.80;99.90;;;;;;9501297;23;20160;-89
2023/03/01 03:31:05;;;;;;;28.33;14.77;;;-2.80;99.90;;;;;;9501568;23;20195;-89
2023/03/01 03:34:50;;;;;;;32.47;14.87;;;-2.80;99.90;;;;;;9503204;23;20175;-89
2023/03/01 03:38:36;;;;;;;30.30;15.40;;;-2.80;99.90;;;;;;9500861;23;20180;-89
2023/03/01 03:42:22;;;;;;;35.83;16.27;;;-2.90;99.90;;;;;;9501603;23;20160;-89
2023/03/01 03:46:08;;;;;;;29.20;15.13;;;-2.90;99.90;;;;;;9501769;23;20226;-89
2023/03/01 03:49:54;;;;;;;26.73;14.60;;;-2.90;99.90;;;;;;9502761;23;20174;-89
2023/03/01 03:53:40;;;;;;;35.70;16.83;;;-2.90;99.90;;;;;;9504235;23;20193;-89
2023/03/01 03:57:25;;;;;;;34.03;16.33;;;-3.00;99.90;;;;;;9461787;23;20218;-89
2023/03/01 04:01:11;;;;;;;31.73;15.67;;;-3.00;99.90;;;;;;9386601;23;20162;-90
2023/03/01 04:04:56;;;;;;;30.23;15.13;;;-3.00;99.90;;;;;;9411652;23;20166;-90
2023/03/01 04:08:42;;;;;;;31.87;15.03;;;-3.10;99.90;;;;;;9427960;23;20248;-90
2023/03/01 04:12:28;;;;;;;30.77;15.77;;;-3.10;99.90;;;;;;9458107;23;20157;-89
2023/03/01 04:16:13;;;;;;;30.97;16.10;;;-3.10;99.90;;;;;;9432025;23;20211;-89
2023/03/01 04:19:59;;;;;;;32.83;15.03;;;-3.10;99.90;;;;;;9432544;23;20167;-90
2023/03/01 04:23:44;;;;;;;28.47;14.63;;;-3.20;99.90;;;;;;9459101;23;20211;-89
2023/03/01 04:27:30;;;;;;;28.47;14.60;;;-3.20;99.90;;;;;;9430163;23;20243;-90
2023/03/01 04:31:18;;;;;;;30.27;14.73;;;-3.20;99.90;;;;;;9431919;23;20169;-89
2023/03/01 04:35:04;;;;;;;31.07;15.93;;;-3.20;99.90;;;;;;9456408;23;20243;-90
2023/03/01 04:38:50;;;;;;;32.67;16.00;;;-3.30;99.90;;;;;;9457774;23;20190;-89
2023/03/01 04:42:35;;;;;;;30.83;15.97;;;-3.30;99.90;;;;;;9457268;23;20193;-91
2023/03/01 04:46:21;;;;;;;31.53;16.57;;;-3.30;99.90;;;;;;9431722;23;20234;-91
2023/03/01 04:50:08;;;;;;;32.17;15.97;;;-3.30;99.90;;;;;;9431835;23;20160;-91
2023/03/01 04:53:54;;;;;;;32.37;16.30;;;-3.30;99.90;;;;;;9456582;23;20163;-89
2023/03/01 04:57:48;;;;;;;32.17;15.63;;;-3.40;99.90;;;;;;9434648;23;20193;-90
2023/03/01 05:01:35;;;;;;;34.60;16.63;;;-3.40;99.90;;;;;;9435666;23;20149;-90
2023/03/01 05:05:30;;;;;;;33.17;16.10;;;-3.40;99.90;;;;;;9432309;23;20171;-91
2023/03/01 05:09:26;;;;;;;27.93;15.20;;;-3.40;99.90;;;;;;9455642;23;20164;-91
2023/03/01 05:13:20;;;;;;;33.67;15.23;;;-3.40;99.90;;;;;;9432710;23;20271;-91
2023/03/01 05:17:07;;;;;;;28.27;15.60;;;-3.50;99.90;;;;;;9455385;23;20278;-90
2023/03/01 05:21:01;;;;;;;33.63;16.60;;;-3.50;99.90;;;;;;9457691;23;20213;-91
2023/03/01 05:24:46;;;;;;;34.37;16.87;;;-3.50;99.90;;;;;;9455769;23;20754;-90
2023/03/01 05:28:32;;;;;;;32.90;16.57;;;-3.50;99.90;;;;;;9431782;23;20749;-90
2023/03/01 05:32:18;;;;;;;33.80;16.50;;;-3.60;99.90;;;;;;9433035;23;20172;-91
2023/03/01 05:36:07;;;;;;;32.80;16.30;;;-3.50;99.90;;;;;;9432998;23;20808;-91
2023/03/01 05:39:52;;;;;;;40.13;18.60;;;-3.60;99.90;;;;;;9457897;23;20161;-92
2023/03/01 05:43:38;;;;;;;52.57;22.90;;;-3.60;99.90;;;;;;9433990;23;20162;-91
2023/03/01 05:47:24;;;;;;;42.93;19.93;;;-3.60;99.90;;;;;;9433586;23;20272;-91
2023/03/01 05:51:10;;;;;;;35.17;17.87;;;-3.70;99.90;;;;;;9433415;23;20168;-91
2023/03/01 05:54:55;;;;;;;36.73;17.83;;;-3.70;99.90;;;;;;9433587;23;20196;-91
2023/03/01 05:58:41;;;;;;;33.83;16.87;;;-3.70;99.90;;;;;;9433439;23;20200;-91
2023/03/01 06:02:27;;;;;;;42.67;18.50;;;-3.70;99.90;;;;;;9433137;23;20165;-90
2023/03/01 06:06:12;;;;;;;38.20;19.37;;;-3.70;99.90;;;;;;9433421;23;20196;-90
2023/03/01 06:09:58;;;;;;;40.50;18.17;;;-3.80;99.90;;;;;;9433213;23;20168;-90
2023/03/01 06:13:44;;;;;;;42.37;18.67;;;-3.80;99.90;;;;;;9433462;23;20173;-91
2023/03/01 06:17:37;;;;;;;35.43;18.20;;;-3.80;99.90;;;;;;9457526;23;20194;-93
2023/03/01 06:21:22;;;;;;;37.63;18.47;;;-3.80;99.90;;;;;;9459185;23;20148;-91
2023/03/01 06:25:09;;;;;;;38.67;18.20;;;-3.80;99.90;;;;;;9433145;23;20245;-91
2023/03/01 06:29:00;;;;;;;39.40;18.63;;;-3.80;99.90;;;;;;9456740;23;20198;-92
2023/03/01 06:32:45;;;;;;;37.20;18.30;;;-3.80;99.90;;;;;;9433027;23;20153;-91
2023/03/01 06:36:31;;;;;;;35.33;17.67;;;-3.80;99.90;;;;;;9432842;23;20196;-91
2023/03/01 06:40:17;;;;;;;41.63;18.47;;;-3.80;99.90;;;;;;9433192;23;20193;-92
2023/03/01 06:44:02;;;;;;;34.93;17.23;;;-3.80;99.90;;;;;;9432949;23;20169;-91
2023/03/01 06:47:48;;;;;;;35.43;17.60;;;-3.80;99.90;;;;;;9434739;23;20255;-91
2023/03/01 06:51:34;;;;;;;35.63;17.93;;;-3.80;99.90;;;;;;9457227;23;20221;-91
2023/03/01 06:55:20;;;;;;;37.63;18.37;;;-3.80;99.90;;;;;;9456667;23;20188;-91
2023/03/01 06:59:05;;;;;;;36.87;17.77;;;-3.70;99.90;;;;;;9432660;23;20234;-91
2023/03/01 07:02:51;;;;;;;37.90;17.80;;;-3.70;99.90;;;;;;9432618;23;20548;-92
2023/03/01 07:07:06;;;;;;;40.70;18.17;;;-3.70;99.90;;;;;;9432542;23;20186;-91
2023/03/01 07:10:57;;;;;;;36.33;17.30;;;-3.60;99.90;;;;;;9456651;23;20184;-91
2023/03/01 07:14:44;;;;;;;37.23;18.00;;;-3.50;99.90;;;;;;9456527;23;20211;-90
2023/03/01 07:18:30;;;;;;;43.47;19.53;;;-3.40;99.90;;;;;;9457355;23;20240;-92
2023/03/01 07:22:15;;;;;;;39.60;19.10;;;-3.30;99.90;;;;;;9432384;23;20153;-92
2023/03/01 07:26:01;;;;;;;40.60;19.67;;;-3.20;99.90;;;;;;9434255;23;20184;-91
2023/03/01 07:29:46;;;;;;;37.13;19.10;;;-3.10;99.90;;;;;;9437798;23;20164;-91
2023/03/01 07:33:32;;;;;;;39.03;18.63;;;-3.10;99.90;;;;;;9437585;23;20676;-91
2023/03/01 07:37:18;;;;;;;41.73;19.73;;;-3.10;99.90;;;;;;9437310;23;20192;-91
2023/03/01 07:41:05;;;;;;;41.23;21.07;;;-3.00;99.90;;;;;;9437610;23;20569;-91
2023/03/01 07:44:51;;;;;;;36.10;19.07;;;-3.00;99.90;;;;;;9437611;23;20169;-92
2023/03/01 07:48:36;;;;;;;43.80;20.53;;;-2.90;99.90;;;;;;9437549;23;20196;-90
2023/03/01 07:52:22;;;;;;;40.33;20.53;;;-2.90;99.90;;;;;;9437331;23;20164;-90
2023/03/01 07:56:10;;;;;;;42.20;20.17;;;-2.90;99.90;;;;;;9437014;23;20545;-90
2023/03/01 07:59:56;;;;;;;42.57;20.47;;;-2.80;99.90;;;;;;9461539;23;20152;-90
2023/03/01 08:03:54;;;;;;;46.47;21.30;;;-2.80;99.90;;;;;;9437553;23;20822;-91
2023/03/01 08:07:39;;;;;;;42.13;20.63;;;-2.70;99.90;;;;;;9437248;23;20189;-90
2023/03/01 08:11:25;;;;;;;38.93;19.30;;;-2.70;99.90;;;;;;9437261;23;20171;-90
2023/03/01 08:15:11;;;;;;;38.43;18.83;;;-2.70;99.90;;;;;;9437202;23;20184;-90
2023/03/01 08:19:00;;;;;;;43.83;21.00;;;-2.80;99.90;;;;;;9461323;23;20328;-90
2023/03/01 08:22:46;;;;;;;46.57;22.33;;;-2.80;99.90;;;;;;9437054;23;20853;-90
2023/03/01 08:26:32;;;;;;;61.60;28.50;;;-2.80;99.90;;;;;;9437264;23;20525;-90
2023/03/01 08:30:18;;;;;;;84.40;33.50;;;-2.80;99.90;;;;;;9461232;23;20174;-90
2023/03/01 08:34:49;;;;;;;67.73;28.13;;;-2.80;99.90;;;;;;9437128;23;20160;-90
2023/03/01 08:38:35;;;;;;;68.53;27.40;;;-2.80;99.90;;;;;;9459653;23;20182;-90
2023/03/01 08:42:21;;;;;;;55.03;25.33;;;-2.70;99.90;;;;;;9434676;23;20193;-91
2023/03/01 08:46:06;;;;;;;58.40;24.57;;;-2.70;99.90;;;;;;9434521;23;20192;-91
2023/03/01 08:49:52;;;;;;;53.27;22.83;;;-2.70;99.90;;;;;;9434437;23;20533;-90
2023/03/01 08:53:38;;;;;;;52.40;22.93;;;-2.70;99.90;;;;;;9434523;23;20200;-90
2023/03/01 08:57:24;;;;;;;52.73;23.27;;;-2.60;99.90;;;;;;9458129;23;20666;-90
2023/03/01 09:01:11;;;;;;;80.17;33.23;;;-2.60;99.90;;;;;;9434434;23;20636;-90
2023/03/01 09:04:57;;;;;;;54.10;25.37;;;-2.40;99.90;;;;;;9458260;23;20165;-92
2023/03/01 09:08:45;;;;;;;51.90;23.53;;;-2.50;99.90;;;;;;9434288;23;20188;-91
2023/03/01 09:12:31;;;;;;;43.60;21.73;;;-2.40;99.90;;;;;;9458324;23;20163;-91
2023/03/01 09:16:19;;;;;;;49.53;22.50;;;-2.40;99.90;;;;;;9434423;23;20751;-91
2023/03/01 09:20:05;;;;;;;51.97;23.03;;;-2.30;99.90;;;;;;9458317;23;20612;-92
2023/03/01 09:23:51;;;;;;;48.37;22.57;;;-2.20;99.90;;;;;;9461383;23;20153;-90
2023/03/01 09:27:36;;;;;;;88.63;34.27;;;-2.20;99.90;;;;;;9446279;23;20188;-91
2023/03/01 09:31:24;;;;;;;56.10;25.67;;;-2.10;99.90;;;;;;9434229;23;20169;-92
2023/03/01 09:35:10;;;;;;;52.10;23.47;;;-2.00;99.90;;;;;;9458049;23;20812;-90
2023/03/01 09:38:56;;;;;;;49.53;23.60;;;-1.90;99.90;;;;;;9457901;23;20188;-89
2023/03/01 09:43:06;;;;;;;52.23;22.53;;;-1.80;99.90;;;;;;9458069;23;20161;-90
2023/03/01 09:46:52;;;;;;;54.23;24.80;;;-1.70;99.90;;;;;;9457953;23;20279;-89
2023/03/01 09:50:41;;;;;;;51.43;22.90;;;-1.50;99.90;;;;;;9433778;23;20192;-90
2023/03/01 09:54:27;;;;;;;52.30;22.00;;;-1.30;99.90;;;;;;9457612;23;20583;-89
2023/03/01 09:58:54;;;;;;;46.27;21.80;;;-1.20;99.90;;;;;;9433200;23;20199;-89
2023/03/01 10:02:52;;;;;;;44.87;20.33;;;-1.10;99.90;;;;;;9449262;23;20230;-90
2023/03/01 10:06:44;;;;;;;43.13;20.60;;;-1.10;99.90;;;;;;9457323;23;20184;-89
2023/03/01 10:10:36;;;;;;;51.93;21.50;;;-0.90;99.90;;;;;;9457295;23;20208;-89
2023/03/01 10:14:22;;;;;;;49.90;22.20;;;-0.80;99.90;;;;;;9457038;23;20300;-89
2023/03/01 10:18:20;;;;;;;48.40;21.57;;;-0.80;99.90;;;;;;9433170;23;20180;-90
2023/03/01 10:22:16;;;;;;;42.40;19.87;;;-0.70;99.90;;;;;;9457226;23;20215;-90
2023/03/01 10:26:14;;;;;;;43.50;20.77;;;-0.60;99.90;;;;;;9433033;23;20188;-91
2023/03/01 10:30:10;;;;;;;43.13;20.07;;;-0.60;99.90;;;;;;9433173;23;20160;-91
2023/03/01 10:34:23;;;;;;;42.67;20.67;;;-0.50;99.90;;;;;;9457308;23;20260;-91
2023/03/01 10:38:13;;;;;;;41.07;19.60;;;-0.40;99.90;;;;;;9433124;23;20200;-90
2023/03/01 10:42:04;;;;;;;44.33;19.67;;;-0.30;99.90;;;;;;9432551;23;20168;-90
2023/03/01 10:45:54;;;;;;;46.93;21.87;;;-0.20;99.90;;;;;;9456095;23;20191;-90
2023/03/01 10:49:53;;;;;;;39.30;19.37;;;-0.10;99.90;;;;;;9457030;23;20152;-90
2023/03/01 10:53:47;;;;;;;41.37;18.80;;;0.00;99.90;;;;;;9432082;23;20165;-89
2023/03/01 10:57:40;;;;;;;37.07;18.93;;;0.00;99.90;;;;;;9455894;23;20703;-89
2023/03/01 11:01:32;;;;;;;32.73;16.67;;;0.10;99.90;;;;;;9456305;23;20279;-90
2023/03/01 11:05:25;;;;;;;35.33;17.77;;;0.20;99.90;;;;;;9456862;23;20169;-86
2023/03/01 11:09:27;;;;;;;39.63;18.03;;;0.40;99.90;;;;;;9432358;23;20254;-88
2023/03/01 11:13:17;;;;;;;35.67;17.87;;;0.50;99.90;;;;;;9456553;23;20627;-89
2023/03/01 11:17:20;;;;;;;38.87;17.90;;;0.50;99.90;;;;;;9456418;23;20201;-89
2023/03/01 11:21:08;;;;;;;39.77;18.97;;;0.60;99.90;;;;;;9431986;23;20149;-85
2023/03/01 11:24:55;;;;;;;37.43;17.47;;;0.70;99.90;;;;;;9455832;23;20165;-88
2023/03/01 11:28:44;;;;;;;40.37;19.20;;;0.70;99.90;;;;;;9432616;23;20188;-88
2023/03/01 11:32:39;;;;;;;34.93;17.30;;;0.70;99.90;;;;;;9456267;23;20170;-88
2023/03/01 11:36:34;;;;;;;30.53;15.47;;;0.90;99.90;;;;;;9455568;23;20655;-88
2023/03/01 11:40:37;;;;;;;32.37;16.80;;;1.00;99.90;;;;;;9455864;23;20173;-88
2023/03/01 11:44:31;;;;;;;32.47;16.73;;;1.20;99.90;;;;;;9457010;23;20296;-88
2023/03/01 11:48:58;;;;;;;32.03;15.40;;;1.30;99.90;;;;;;9455270;23;20653;-87
2023/03/01 11:53:01;;;;;;;37.87;16.97;;;1.40;99.90;;;;;;9339321;23;20278;-88
2023/03/01 11:56:55;;;;;;;37.10;17.73;;;1.50;99.90;;;;;;9338041;23;20201;-88
2023/03/01 12:01:21;;;;;;;36.27;17.30;;;1.60;99.90;;;;;;9362892;23;20155;-88
2023/03/01 12:06:03;;;;;;;36.73;17.87;;;1.70;99.90;;;;;;9362345;23;20166;-88
2023/03/01 12:09:58;;;;;;;36.17;17.60;;;1.80;99.90;;;;;;9338495;23;20170;-87
2023/03/01 12:13:46;;;;;;;52.30;22.77;;;1.90;99.90;;;;;;9364972;23;20209;-88
2023/03/01 12:17:59;;;;;;;54.57;22.47;;;1.90;99.90;;;;;;9365498;23;20237;-88
2023/03/01 12:22:07;;;;;;;41.27;20.57;;;1.90;99.90;;;;;;9364900;23;20175;-87
2023/03/01 12:26:06;;;;;;;46.70;22.77;;;1.80;99.90;;;;;;9458765;23;20172;-86
2023/03/01 12:30:00;;;;;;;47.90;22.13;;;1.70;99.90;;;;;;9456606;23;20239;-88
2023/03/01 12:33:52;;;;;;;41.60;20.50;;;1.70;99.90;;;;;;9458921;23;20482;-88
2023/03/01 12:38:06;;;;;;;46.43;22.93;;;1.80;99.90;;;;;;9432505;23;20520;-87
2023/03/01 12:42:13;;;;;;;47.37;22.17;;;1.70;99.90;;;;;;9433382;23;20208;-90
2023/03/01 12:46:18;;;;;;;57.90;25.50;;;1.80;99.90;;;;;;9436441;23;20239;-87
2023/03/01 12:50:36;;;;;;;50.00;23.33;;;1.90;99.90;;;;;;9456422;23;20189;-87
2023/03/01 12:54:29;;;;;;;86.23;39.03;;;2.00;99.90;;;;;;9449870;23;20613;-86
2023/03/01 12:58:24;;;;;;;41.87;20.90;;;2.10;99.90;;;;;;9455569;23;20196;-86
2023/03/01 13:02:18;;;;;;;41.93;21.23;;;2.20;99.90;;;;;;9457876;23;20211;-86
2023/03/01 13:06:37;;;;;;;38.20;18.80;;;2.30;99.90;;;;;;9432929;23;20180;-88
2023/03/01 13:10:34;;;;;;;42.60;19.30;;;2.30;99.90;;;;;;9432110;23;20152;-88
2023/03/01 13:14:20;;;;;;;38.37;19.73;;;2.40;99.90;;;;;;9457885;23;20229;-87
2023/03/01 13:18:28;;;;;;;43.43;19.40;;;2.50;99.90;;;;;;9432284;23;20189;-88
2023/03/01 13:22:31;;;;;;;35.97;19.03;;;2.50;99.90;;;;;;9456253;23;20149;-85
2023/03/01 13:26:18;;;;;;;34.20;17.20;;;2.60;99.90;;;;;;9431545;23;20184;-86
2023/03/01 13:30:05;;;;;;;35.13;18.57;;;2.70;99.90;;;;;;9431609;23;20168;-86
2023/03/01 13:33:52;;;;;;;38.00;19.00;;;2.80;99.90;;;;;;9457184;23;20149;-85
2023/03/01 13:37:38;;;;;;;37.07;18.57;;;2.90;99.90;;;;;;9456374;23;20259;-86
2023/03/01 13:41:42;;;;;;;33.30;16.67;;;2.90;99.90;;;;;;9431620;23;20196;-87
2023/03/01 13:45:42;;;;;;;35.60;17.97;;;2.90;99.90;;;;;;9431531;23;20160;-86
2023/03/01 13:49:35;;;;;;;32.83;16.70;;;2.80;99.90;;;;;;9454934;23;20165;-86
2023/03/01 13:53:25;;;;;;;30.63;17.33;;;2.90;99.90;;;;;;9456892;23;20141;-86
2023/03/01 13:57:22;;;;;;;32.27;16.93;;;2.90;99.90;;;;;;9455760;23;20192;-86
2023/03/01 14:01:28;;;;;;;42.03;18.80;;;3.00;99.90;;;;;;9456561;23;20454;-86
2023/03/01 14:05:13;;;;;;;36.13;17.13;;;3.00;99.90;;;;;;9455070;23;20564;-86
2023/03/01 14:09:14;;;;;;;32.13;15.97;;;3.10;99.90;;;;;;9431226;23;20168;-86
2023/03/01 14:13:32;;;;;;;32.70;16.33;;;3.00;99.80;;;;;;9454418;23;20188;-86
2023/03/01 14:17:42;;;;;;;33.10;17.63;;;3.00;99.10;;;;;;9455854;23;20660;-86
2023/03/01 14:21:29;;;;;;;35.27;16.67;;;3.10;99.90;;;;;;9430900;23;20240;-86
2023/03/01 14:25:29;;;;;;;35.10;18.23;;;3.10;99.90;;;;;;9456031;23;20175;-86
2023/03/01 14:29:25;;;;;;;34.87;18.40;;;3.20;99.90;;;;;;9452673;23;20156;-86
2023/03/01 14:33:20;;;;;;;37.30;18.70;;;3.20;99.90;;;;;;9427478;23;20203;-87
2023/03/01 14:37:25;;;;;;;40.10;20.37;;;3.30;99.90;;;;;;9454760;23;20188;-86
2023/03/01 14:41:18;;;;;;;41.93;20.03;;;3.30;99.90;;;;;;9454763;23;20144;-86
2023/03/01 14:45:05;;;;;;;39.07;18.73;;;3.30;99.90;;;;;;9452928;23;20609;-86
2023/03/01 14:48:55;;;;;;;34.90;18.70;;;3.40;99.90;;;;;;9452747;23;20212;-86
2023/03/01 14:52:44;;;;;;;37.80;19.63;;;3.40;99.90;;;;;;9453709;23;20236;-87
2023/03/01 14:56:43;;;;;;;41.13;20.70;;;3.50;99.50;;;;;;9452964;23;20200;-86
2023/03/01 15:00:33;;;;;;;40.63;19.23;;;3.50;99.90;;;;;;9454379;23;20176;-85
2023/03/01 15:04:22;;;;;;;39.47;19.80;;;3.50;99.90;;;;;;9452357;23;20577;-85
2023/03/01 15:08:16;;;;;;;57.33;26.37;;;3.50;99.90;;;;;;9452461;23;20591;-85
2023/03/01 15:12:41;;;;;;;43.07;21.07;;;3.50;99.50;;;;;;9452026;23;20194;-85
2023/03/01 15:16:30;;;;;;;56.60;26.30;;;3.50;99.70;;;;;;9454131;23;20567;-86
2023/03/01 15:20:21;;;;;;;44.20;21.53;;;3.50;99.60;;;;;;9453200;23;20169;-87
2023/03/01 15:24:19;;;;;;;62.20;26.07;;;3.50;99.90;;;;;;9428433;23;20153;-87
2023/03/01 15:28:04;;;;;;;84.27;34.37;;;3.50;99.90;;;;;;9426836;23;20208;-86
2023/03/01 15:31:57;;;;;;;41.90;20.43;;;3.50;99.90;;;;;;9426713;23;20157;-85
2023/03/01 15:35:47;;;;;;;40.63;21.43;;;3.50;99.90;;;;;;9453496;23;20189;-85
2023/03/01 15:39:44;;;;;;;33.67;16.63;;;3.50;99.90;;;;;;9452791;23;20160;-87
2023/03/01 15:43:45;;;;;;;32.67;17.60;;;3.50;99.40;;;;;;9452871;23;20175;-86
2023/03/01 15:47:32;;;;;;;34.90;18.07;;;3.40;99.90;;;;;;9454526;23;20185;-86
2023/03/01 15:51:20;;;;;;;31.13;16.67;;;3.40;99.90;;;;;;9456604;23;20165;-87
2023/03/01 15:55:16;;;;;;;31.13;16.10;;;3.30;99.90;;;;;;9458193;23;20176;-86
2023/03/01 15:59:03;;;;;;;29.17;15.70;;;3.40;99.90;;;;;;9432133;23;20215;-86
2023/03/01 16:02:48;;;;;;;24.40;14.37;;;3.40;99.90;;;;;;9457603;23;20548;-86
2023/03/01 16:06:35;;;;;;;31.60;14.53;;;3.40;99.90;;;;;;9457534;23;20243;-86
2023/03/01 16:10:22;;;;;;;31.07;14.90;;;3.30;99.90;;;;;;9433308;23;20175;-86
2023/03/01 16:14:09;;;;;;;25.67;14.13;;;3.30;99.90;;;;;;9456166;23;20248;-87
2023/03/01 16:17:55;;;;;;;26.97;13.80;;;3.30;99.90;;;;;;9432598;23;20207;-84
2023/03/01 16:21:42;;;;;;;25.47;13.17;;;3.40;99.90;;;;;;9456613;23;20161;-85
2023/03/01 16:25:28;;;;;;;22.83;12.83;;;3.80;99.90;;;;;;9430543;23;20168;-86
2023/03/01 16:29:15;;;;;;;25.17;13.60;;;4.00;99.90;;;;;;9431758;23;20185;-87
2023/03/01 16:33:02;;;;;;;23.13;12.50;;;4.30;99.90;;;;;;9430797;23;20165;-88
2023/03/01 16:36:47;;;;;;;22.73;12.23;;;4.30;99.90;;;;;;9459873;23;20652;-91
2023/03/01 16:40:38;;;;;;;26.90;12.77;;;4.50;99.90;;;;;;9434753;23;20500;-92
2023/03/01 16:44:23;;;;;;;24.80;13.10;;;4.40;99.90;;;;;;9434863;23;20150;-91
2023/03/01 16:48:09;;;;;;;25.17;13.63;;;4.40;99.90;;;;;;9434375;23;20184;-90
2023/03/01 16:51:55;;;;;;;23.23;13.53;;;4.30;99.90;;;;;;9457286;23;20161;-87
2023/03/01 16:55:45;;;;;;;26.03;14.23;;;4.20;99.90;;;;;;9432122;23;20616;-87
2023/03/01 16:59:30;;;;;;;25.80;14.23;;;4.20;99.90;;;;;;9430919;23;20179;-87
2023/03/01 17:03:16;;;;;;;25.63;13.23;;;4.10;99.90;;;;;;9431092;23;20240;-86
2023/03/01 17:07:03;;;;;;;25.87;14.33;;;4.00;99.90;;;;;;9430958;23;20271;-86
2023/03/01 17:10:48;;;;;;;28.97;15.57;;;3.90;99.90;;;;;;9431593;23;20160;-86
2023/03/01 17:14:34;;;;;;;27.03;15.27;;;3.80;99.90;;;;;;9431213;23;20164;-86
2023/03/01 17:18:20;;;;;;;29.67;15.77;;;3.90;99.90;;;;;;9429552;23;20562;-86
2023/03/01 17:22:07;;;;;;;31.70;16.93;;;3.80;99.90;;;;;;9431458;23;20185;-87
2023/03/01 17:25:54;;;;;;;30.07;15.90;;;3.70;99.90;;;;;;9456150;23;20181;-88
2023/03/01 17:29:41;;;;;;;31.97;17.80;;;3.60;99.90;;;;;;9457824;23;20189;-87
2023/03/01 17:33:26;;;;;;;33.93;17.03;;;3.60;99.90;;;;;;9432290;23;20161;-87
2023/03/01 17:37:12;;;;;;;35.43;15.63;;;3.50;99.90;;;;;;9457272;23;20195;-87
2023/03/01 17:40:59;;;;;;;26.17;14.37;;;3.50;99.90;;;;;;9431598;23;20156;-84
2023/03/01 17:44:45;;;;;;;21.57;10.53;;;3.40;99.90;;;;;;9431743;23;20692;-87
2023/03/01 17:48:31;;;;;;;19.37;10.13;;;3.40;99.90;;;;;;9432121;23;20745;-85
2023/03/01 17:52:16;;;;;;;16.67;9.43;;;3.30;99.80;;;;;;9431629;23;20176;-87
2023/03/01 17:56:04;;;;;;;19.73;9.60;;;3.30;99.60;;;;;;9431285;23;20554;-86
2023/03/01 17:59:51;;;;;;;18.50;9.27;;;3.20;99.60;;;;;;9455280;23;20153;-85
2023/03/01 18:03:37;;;;;;;17.37;10.17;;;3.20;99.50;;;;;;9455329;23;20156;-87
2023/03/01 18:07:27;;;;;;;20.67;10.73;;;3.10;99.90;;;;;;9431989;23;20181;-90
2023/03/01 18:11:14;;;;;;;22.70;10.13;;;2.90;99.90;;;;;;9480842;23;20195;-89
2023/03/01 18:14:59;;;;;;;16.83;9.07;;;2.90;99.90;;;;;;9515387;23;20203;-89
2023/03/01 18:18:45;;;;;;;16.37;9.57;;;2.90;99.90;;;;;;9515617;23;20156;-89
2023/03/01 18:22:32;;;;;;;21.97;9.93;;;2.80;99.90;;;;;;9515238;23;20180;-89
2023/03/01 18:26:21;;;;;;;16.50;9.83;;;2.70;99.90;;;;;;9509318;23;20164;-90
2023/03/01 18:30:19;;;;;;;16.47;9.67;;;2.70;99.90;;;;;;9504637;23;20208;-90
2023/03/01 18:34:36;;;;;;;17.23;9.57;;;2.60;99.90;;;;;;9504600;23;20207;-90
2023/03/01 18:38:38;;;;;;;17.33;9.60;;;2.60;99.90;;;;;;9504847;23;20172;-90
2023/03/01 18:42:42;;;;;;;22.00;9.90;;;2.60;99.90;;;;;;9508067;23;20203;-90
2023/03/01 18:46:31;;;;;;;21.07;9.53;;;2.50;99.90;;;;;;9506883;23;20153;-89
2023/03/01 18:50:17;;;;;;;18.70;9.97;;;2.40;99.90;;;;;;9508622;23;20175;-91
2023/03/01 18:54:04;;;;;;;20.13;11.13;;;2.40;99.90;;;;;;9509027;23;20164;-88
2023/03/01 18:58:01;;;;;;;19.40;10.83;;;2.30;99.90;;;;;;9509247;23;20231;-87
2023/03/01 19:01:52;;;;;;;22.77;10.70;;;2.30;99.90;;;;;;9501833;23;20192;-89
2023/03/01 19:05:40;;;;;;;18.47;9.33;;;2.30;99.90;;;;;;9500052;23;20498;-87
2023/03/01 19:09:33;;;;;;;19.27;10.07;;;2.20;99.90;;;;;;9502679;23;20616;-88
2023/03/01 19:13:39;;;;;;;17.73;10.13;;;2.10;99.90;;;;;;9501522;23;20195;-88
2023/03/01 19:17:29;;;;;;;20.43;11.07;;;2.10;99.90;;;;;;9477177;23;20881;-88
2023/03/01 19:21:24;;;;;;;23.60;12.50;;;2.00;99.90;;;;;;9500436;23;20175;-87
2023/03/01 19:25:11;;;;;;;26.37;13.90;;;2.00;99.90;;;;;;9500249;23;20179;-86
2023/03/01 19:28:58;;;;;;;28.47;15.10;;;2.00;99.90;;;;;;9500505;23;20159;-87
2023/03/01 19:32:44;;;;;;;30.73;16.10;;;1.90;99.90;;;;;;9474303;23;20184;-87
2023/03/01 19:36:33;;;;;;;30.20;16.30;;;1.90;99.90;;;;;;9501837;23;20172;-87